sensor_id;sensor_type;location;lat;lon;timestamp;P1;durP1;ratioP1;P2;durP2;ratioP2
4595;SDS011;2310;49.978;8.742;2023-04-25T00:02:28;6.87;;;5.40;;
4595;SDS011;2310;49.978;8.742;2023-04-25T00:06:29;6.33;;;4.83;;
4595;SDS011;2310;49.978;8.742;2023-04-25T00:10:32;6.20;;;4.80;;
4595;SDS011;2310;49.978;8.742;2023-04-25T00:14:33;6.77;;;4.90;;
4595;SDS011;2310;49.978;8.742;2023-04-25T00:18:36;6.63;;;5.03;;
4595;SDS011;2310;49.978;8.742;2023-04-25T00:22:37;6.33;;;4.90;;
4595;SDS011;2310;49.978;8.742;2023-04-25T00:26:38;5.83;;;4.60;;
4595;SDS011;2310;49.978;8.742;2023-04-25T00:30:40;5.77;;;5.17;;
4595;SDS011;2310;49.978;8.742;2023-04-25T00:34:42;5.47;;;4.53;;
4595;SDS011;2310;49.978;8.742;2023-04-25T00:38:43;6.43;;;4.70;;
4595;SDS011;2310;49.978;8.742;2023-04-25T00:42:44;6.70;;;5.73;;
4595;SDS011;2310;49.978;8.742;2023-04-25T00:46:47;7.33;;;6.23;;
4595;SDS011;2310;49.978;8.742;2023-04-25T00:50:53;8.70;;;6.10;;
4595;SDS011;2310;49.978;8.742;2023-04-25T00:54:56;8.63;;;6.53;;
4595;SDS011;2310;49.978;8.742;2023-04-25T00:58:58;9.03;;;7.03;;
4595;SDS011;2310;49.978;8.742;2023-04-25T01:02:59;8.30;;;6.60;;
4595;SDS011;2310;49.978;8.742;2023-04-25T01:07:02;7.70;;;6.90;;
4595;SDS011;2310;49.978;8.742;2023-04-25T01:11:04;6.90;;;6.10;;
4595;SDS011;2310;49.978;8.742;2023-04-25T01:15:05;9.10;;;7.30;;
4595;SDS011;2310;49.978;8.742;2023-04-25T01:19:08;9.67;;;6.67;;
4595;SDS011;2310;49.978;8.742;2023-04-25T01:23:14;6.83;;;6.10;;
4595;SDS011;2310;49.978;8.742;2023-04-25T01:27:15;11.80;;;8.00;;
4595;SDS011;2310;49.978;8.742;2023-04-25T01:31:17;10.20;;;7.57;;
4595;SDS011;2310;49.978;8.742;2023-04-25T01:35:20;8.87;;;7.43;;
4595;SDS011;2310;49.978;8.742;2023-04-25T01:39:22;11.57;;;9.10;;
4595;SDS011;2310;49.978;8.742;2023-04-25T01:43:24;9.77;;;7.63;;
4595;SDS011;2310;49.978;8.742;2023-04-25T01:47:27;9.30;;;7.77;;
4595;SDS011;2310;49.978;8.742;2023-04-25T01:51:30;8.00;;;7.00;;
4595;SDS011;2310;49.978;8.742;2023-04-25T01:55:32;9.83;;;7.63;;
4595;SDS011;2310;49.978;8.742;2023-04-25T01:59:33;9.50;;;7.97;;
4595;SDS011;2310;49.978;8.742;2023-04-25T02:03:35;9.87;;;7.67;;
4595;SDS011;2310;49.978;8.742;2023-04-25T02:07:37;9.70;;;7.93;;
4595;SDS011;2310;49.978;8.742;2023-04-25T02:11:38;9.13;;;8.10;;
4595;SDS011;2310;49.978;8.742;2023-04-25T02:15:39;10.70;;;8.37;;
4595;SDS011;2310;49.978;8.742;2023-04-25T02:19:42;9.23;;;7.80;;
4595;SDS011;2310;49.978;8.742;2023-04-25T02:23:43;9.93;;;8.87;;
4595;SDS011;2310;49.978;8.742;2023-04-25T02:27:46;9.73;;;7.50;;
4595;SDS011;2310;49.978;8.742;2023-04-25T02:31:48;10.77;;;8.60;;
4595;SDS011;2310;49.978;8.742;2023-04-25T02:35:49;14.83;;;8.80;;
4595;SDS011;2310;49.978;8.742;2023-04-25T02:39:50;9.63;;;7.77;;
4595;SDS011;2310;49.978;8.742;2023-04-25T02:43:52;9.73;;;8.40;;
4595;SDS011;2310;49.978;8.742;2023-04-25T02:47:53;10.70;;;9.10;;
4595;SDS011;2310;49.978;8.742;2023-04-25T02:51:55;9.87;;;8.87;;
4595;SDS011;2310;49.978;8.742;2023-04-25T02:55:56;11.87;;;10.00;;
4595;SDS011;2310;49.978;8.742;2023-04-25T02:59:59;10.80;;;9.00;;
4595;SDS011;2310;49.978;8.742;2023-04-25T03:04:00;9.10;;;8.17;;
4595;SDS011;2310;49.978;8.742;2023-04-25T03:08:01;11.37;;;9.60;;
4595;SDS011;2310;49.978;8.742;2023-04-25T03:12:02;11.30;;;9.77;;
4595;SDS011;2310;49.978;8.742;2023-04-25T03:16:04;10.83;;;8.87;;
4595;SDS011;2310;49.978;8.742;2023-04-25T03:20:06;10.50;;;8.00;;
4595;SDS011;2310;49.978;8.742;2023-04-25T03:24:09;13.30;;;10.50;;
4595;SDS011;2310;49.978;8.742;2023-04-25T03:28:11;11.90;;;9.30;;
4595;SDS011;2310;49.978;8.742;2023-04-25T03:32:13;12.67;;;10.63;;
4595;SDS011;2310;49.978;8.742;2023-04-25T03:36:14;12.27;;;10.97;;
4595;SDS011;2310;49.978;8.742;2023-04-25T03:40:15;12.37;;;10.53;;
4595;SDS011;2310;49.978;8.742;2023-04-25T03:44:16;12.07;;;10.10;;
4595;SDS011;2310;49.978;8.742;2023-04-25T03:48:18;12.23;;;10.30;;
4595;SDS011;2310;49.978;8.742;2023-04-25T03:52:21;12.87;;;10.73;;
4595;SDS011;2310;49.978;8.742;2023-04-25T03:56:22;12.43;;;10.50;;
4595;SDS011;2310;49.978;8.742;2023-04-25T04:00:24;12.67;;;9.63;;
4595;SDS011;2310;49.978;8.742;2023-04-25T04:04:26;11.77;;;10.50;;
4595;SDS011;2310;49.978;8.742;2023-04-25T04:08:27;11.57;;;9.17;;
4595;SDS011;2310;49.978;8.742;2023-04-25T04:12:29;10.97;;;9.53;;
4595;SDS011;2310;49.978;8.742;2023-04-25T04:16:30;15.60;;;10.37;;
4595;SDS011;2310;49.978;8.742;2023-04-25T04:20:33;11.87;;;10.63;;
4595;SDS011;2310;49.978;8.742;2023-04-25T04:24:34;12.53;;;10.33;;
4595;SDS011;2310;49.978;8.742;2023-04-25T04:28:35;13.33;;;10.67;;
4595;SDS011;2310;49.978;8.742;2023-04-25T04:32:37;14.03;;;12.00;;
4595;SDS011;2310;49.978;8.742;2023-04-25T04:36:39;18.43;;;11.57;;
4595;SDS011;2310;49.978;8.742;2023-04-25T04:40:41;15.30;;;10.63;;
4595;SDS011;2310;49.978;8.742;2023-04-25T04:44:43;12.03;;;9.23;;
4595;SDS011;2310;49.978;8.742;2023-04-25T04:48:45;10.20;;;7.63;;
4595;SDS011;2310;49.978;8.742;2023-04-25T04:52:47;11.73;;;7.90;;
4595;SDS011;2310;49.978;8.742;2023-04-25T04:56:48;13.00;;;8.33;;
4595;SDS011;2310;49.978;8.742;2023-04-25T05:00:49;12.00;;;8.03;;
4595;SDS011;2310;49.978;8.742;2023-04-25T05:04:51;11.70;;;9.63;;
4595;SDS011;2310;49.978;8.742;2023-04-25T05:08:53;11.93;;;9.07;;
4595;SDS011;2310;49.978;8.742;2023-04-25T05:12:54;11.67;;;9.03;;
4595;SDS011;2310;49.978;8.742;2023-04-25T05:16:55;15.70;;;9.50;;
4595;SDS011;2310;49.978;8.742;2023-04-25T05:20:56;12.73;;;10.47;;
4595;SDS011;2310;49.978;8.742;2023-04-25T05:24:58;17.33;;;10.50;;
4595;SDS011;2310;49.978;8.742;2023-04-25T05:28:59;15.63;;;10.10;;
4595;SDS011;2310;49.978;8.742;2023-04-25T05:33:00;14.00;;;9.90;;
4595;SDS011;2310;49.978;8.742;2023-04-25T05:37:02;13.97;;;10.20;;
4595;SDS011;2310;49.978;8.742;2023-04-25T05:41:03;13.33;;;10.23;;
4595;SDS011;2310;49.978;8.742;2023-04-25T05:45:05;16.53;;;10.50;;
4595;SDS011;2310;49.978;8.742;2023-04-25T05:49:07;16.80;;;11.00;;
4595;SDS011;2310;49.978;8.742;2023-04-25T05:53:08;18.40;;;11.00;;
4595;SDS011;2310;49.978;8.742;2023-04-25T05:57:18;14.30;;;10.87;;
4595;SDS011;2310;49.978;8.742;2023-04-25T06:01:22;18.83;;;10.87;;
4595;SDS011;2310;49.978;8.742;2023-04-25T06:05:23;15.47;;;10.00;;
4595;SDS011;2310;49.978;8.742;2023-04-25T06:09:26;15.00;;;11.77;;
4595;SDS011;2310;49.978;8.742;2023-04-25T06:13:27;15.63;;;11.07;;
4595;SDS011;2310;49.978;8.742;2023-04-25T06:17:28;12.00;;;9.37;;
4595;SDS011;2310;49.978;8.742;2023-04-25T06:21:29;17.20;;;11.90;;
4595;SDS011;2310;49.978;8.742;2023-04-25T06:25:30;14.17;;;9.80;;
4595;SDS011;2310;49.978;8.742;2023-04-25T06:29:32;18.33;;;9.73;;
4595;SDS011;2310;49.978;8.742;2023-04-25T06:33:33;14.33;;;9.30;;
4595;SDS011;2310;49.978;8.742;2023-04-25T06:37:34;12.47;;;8.60;;
4595;SDS011;2310;49.978;8.742;2023-04-25T06:41:35;12.00;;;8.37;;
4595;SDS011;2310;49.978;8.742;2023-04-25T06:45:36;15.00;;;9.53;;
4595;SDS011;2310;49.978;8.742;2023-04-25T06:49:37;11.67;;;8.87;;
4595;SDS011;2310;49.978;8.742;2023-04-25T06:53:39;14.00;;;9.30;;
4595;SDS011;2310;49.978;8.742;2023-04-25T06:57:40;13.83;;;8.27;;
4595;SDS011;2310;49.978;8.742;2023-04-25T07:01:42;16.13;;;9.47;;
4595;SDS011;2310;49.978;8.742;2023-04-25T07:05:43;12.60;;;8.93;;
4595;SDS011;2310;49.978;8.742;2023-04-25T07:09:46;16.57;;;9.63;;
4595;SDS011;2310;49.978;8.742;2023-04-25T07:13:47;12.17;;;9.20;;
4595;SDS011;2310;49.978;8.742;2023-04-25T07:17:48;10.93;;;8.50;;
4595;SDS011;2310;49.978;8.742;2023-04-25T07:21:49;11.80;;;7.80;;
4595;SDS011;2310;49.978;8.742;2023-04-25T07:25:52;12.97;;;7.80;;
4595;SDS011;2310;49.978;8.742;2023-04-25T07:29:54;10.43;;;8.17;;
4595;SDS011;2310;49.978;8.742;2023-04-25T07:33:55;17.10;;;8.37;;
4595;SDS011;2310;49.978;8.742;2023-04-25T07:37:56;10.20;;;7.03;;
4595;SDS011;2310;49.978;8.742;2023-04-25T07:41:57;14.83;;;11.60;;
4595;SDS011;2310;49.978;8.742;2023-04-25T07:45:59;9.20;;;6.63;;
4595;SDS011;2310;49.978;8.742;2023-04-25T07:50:00;7.97;;;6.27;;
4595;SDS011;2310;49.978;8.742;2023-04-25T07:54:02;6.47;;;5.63;;
4595;SDS011;2310;49.978;8.742;2023-04-25T07:58:03;8.57;;;5.80;;
4595;SDS011;2310;49.978;8.742;2023-04-25T08:02:05;8.47;;;6.50;;
4595;SDS011;2310;49.978;8.742;2023-04-25T08:06:06;8.33;;;5.70;;
4595;SDS011;2310;49.978;8.742;2023-04-25T08:10:09;9.67;;;5.43;;
4595;SDS011;2310;49.978;8.742;2023-04-25T08:14:11;8.67;;;5.53;;
4595;SDS011;2310;49.978;8.742;2023-04-25T08:18:13;9.07;;;5.20;;
4595;SDS011;2310;49.978;8.742;2023-04-25T08:22:16;9.00;;;4.93;;
4595;SDS011;2310;49.978;8.742;2023-04-25T08:26:17;11.70;;;5.67;;
4595;SDS011;2310;49.978;8.742;2023-04-25T08:30:18;8.97;;;4.87;;
4595;SDS011;2310;49.978;8.742;2023-04-25T08:34:19;9.47;;;5.70;;
4595;SDS011;2310;49.978;8.742;2023-04-25T08:38:21;11.33;;;6.03;;
4595;SDS011;2310;49.978;8.742;2023-04-25T08:42:22;9.30;;;5.20;;
4595;SDS011;2310;49.978;8.742;2023-04-25T08:46:25;5.90;;;4.70;;
4595;SDS011;2310;49.978;8.742;2023-04-25T08:50:27;8.90;;;4.80;;
4595;SDS011;2310;49.978;8.742;2023-04-25T08:54:29;5.20;;;3.70;;
4595;SDS011;2310;49.978;8.742;2023-04-25T08:58:33;7.00;;;4.40;;
4595;SDS011;2310;49.978;8.742;2023-04-25T09:02:36;6.30;;;3.80;;
4595;SDS011;2310;49.978;8.742;2023-04-25T09:06:38;7.10;;;4.10;;
4595;SDS011;2310;49.978;8.742;2023-04-25T09:10:39;7.63;;;6.50;;
4595;SDS011;2310;49.978;8.742;2023-04-25T09:14:41;6.03;;;5.17;;
4595;SDS011;2310;49.978;8.742;2023-04-25T09:18:43;7.50;;;3.90;;
4595;SDS011;2310;49.978;8.742;2023-04-25T09:22:48;6.17;;;4.20;;
4595;SDS011;2310;49.978;8.742;2023-04-25T09:26:50;7.27;;;3.80;;
4595;SDS011;2310;49.978;8.742;2023-04-25T09:30:54;8.20;;;4.93;;
4595;SDS011;2310;49.978;8.742;2023-04-25T09:34:58;7.30;;;4.53;;
4595;SDS011;2310;49.978;8.742;2023-04-25T09:38:59;6.77;;;4.87;;
4595;SDS011;2310;49.978;8.742;2023-04-25T09:43:01;7.20;;;4.33;;
4595;SDS011;2310;49.978;8.742;2023-04-25T09:47:03;10.37;;;5.90;;
4595;SDS011;2310;49.978;8.742;2023-04-25T09:51:08;11.30;;;6.80;;
4595;SDS011;2310;49.978;8.742;2023-04-25T09:55:17;9.20;;;3.87;;
4595;SDS011;2310;49.978;8.742;2023-04-25T09:59:23;6.83;;;4.30;;
4595;SDS011;2310;49.978;8.742;2023-04-25T10:03:25;6.60;;;4.07;;
4595;SDS011;2310;49.978;8.742;2023-04-25T10:07:29;7.20;;;4.40;;
4595;SDS011;2310;49.978;8.742;2023-04-25T10:11:31;6.00;;;5.07;;
4595;SDS011;2310;49.978;8.742;2023-04-25T10:15:34;7.70;;;4.60;;
4595;SDS011;2310;49.978;8.742;2023-04-25T10:19:39;8.00;;;5.00;;
4595;SDS011;2310;49.978;8.742;2023-04-25T10:23:40;7.30;;;4.83;;
4595;SDS011;2310;49.978;8.742;2023-04-25T10:27:42;6.60;;;4.63;;
4595;SDS011;2310;49.978;8.742;2023-04-25T10:31:46;6.47;;;5.23;;
4595;SDS011;2310;49.978;8.742;2023-04-25T10:35:48;6.67;;;4.50;;
4595;SDS011;2310;49.978;8.742;2023-04-25T10:39:50;9.23;;;5.73;;
4595;SDS011;2310;49.978;8.742;2023-04-25T10:43:58;7.47;;;6.10;;
4595;SDS011;2310;49.978;8.742;2023-04-25T10:47:56;6.30;;;5.37;;
4595;SDS011;2310;49.978;8.742;2023-04-25T10:52:10;8.00;;;5.00;;
4595;SDS011;2310;49.978;8.742;2023-04-25T10:56:17;9.10;;;6.50;;
4595;SDS011;2310;49.978;8.742;2023-04-25T11:00:23;8.13;;;6.30;;
4595;SDS011;2310;49.978;8.742;2023-04-25T11:04:28;11.00;;;8.43;;
4595;SDS011;2310;49.978;8.742;2023-04-25T11:08:37;7.67;;;5.70;;
4595;SDS011;2310;49.978;8.742;2023-04-25T11:12:37;7.80;;;5.23;;
4595;SDS011;2310;49.978;8.742;2023-04-25T11:16:38;7.53;;;4.70;;
4595;SDS011;2310;49.978;8.742;2023-04-25T11:20:41;7.10;;;5.50;;
4595;SDS011;2310;49.978;8.742;2023-04-25T11:24:44;8.80;;;6.43;;
4595;SDS011;2310;49.978;8.742;2023-04-25T11:28:46;9.27;;;6.60;;
4595;SDS011;2310;49.978;8.742;2023-04-25T11:32:49;10.80;;;5.70;;
4595;SDS011;2310;49.978;8.742;2023-04-25T11:36:52;12.30;;;6.40;;
4595;SDS011;2310;49.978;8.742;2023-04-25T11:40:54;7.30;;;5.50;;
4595;SDS011;2310;49.978;8.742;2023-04-25T11:44:56;9.73;;;7.10;;
4595;SDS011;2310;49.978;8.742;2023-04-25T11:48:57;8.50;;;5.97;;
4595;SDS011;2310;49.978;8.742;2023-04-25T11:52:58;9.00;;;6.10;;
4595;SDS011;2310;49.978;8.742;2023-04-25T11:57:04;6.97;;;5.60;;
4595;SDS011;2310;49.978;8.742;2023-04-25T12:01:04;10.33;;;6.70;;
4595;SDS011;2310;49.978;8.742;2023-04-25T12:05:06;7.07;;;5.90;;
4595;SDS011;2310;49.978;8.742;2023-04-25T12:09:11;8.47;;;5.50;;
4595;SDS011;2310;49.978;8.742;2023-04-25T12:13:20;7.63;;;5.00;;
4595;SDS011;2310;49.978;8.742;2023-04-25T12:17:26;7.13;;;4.77;;
4595;SDS011;2310;49.978;8.742;2023-04-25T12:21:29;9.40;;;4.80;;
4595;SDS011;2310;49.978;8.742;2023-04-25T12:25:35;9.60;;;5.63;;
4595;SDS011;2310;49.978;8.742;2023-04-25T12:29:38;6.47;;;4.80;;
4595;SDS011;2310;49.978;8.742;2023-04-25T12:33:42;7.87;;;5.00;;
4595;SDS011;2310;49.978;8.742;2023-04-25T12:37:44;6.93;;;5.00;;
4595;SDS011;2310;49.978;8.742;2023-04-25T12:41:46;14.00;;;11.40;;
4595;SDS011;2310;49.978;8.742;2023-04-25T12:45:53;9.10;;;5.80;;
4595;SDS011;2310;49.978;8.742;2023-04-25T12:49:52;9.87;;;6.00;;
4595;SDS011;2310;49.978;8.742;2023-04-25T12:53:54;10.63;;;5.50;;
4595;SDS011;2310;49.978;8.742;2023-04-25T12:57:55;10.07;;;5.10;;
4595;SDS011;2310;49.978;8.742;2023-04-25T13:01:56;8.43;;;5.13;;
4595;SDS011;2310;49.978;8.742;2023-04-25T13:05:57;8.30;;;7.03;;
4595;SDS011;2310;49.978;8.742;2023-04-25T13:09:59;9.80;;;5.10;;
4595;SDS011;2310;49.978;8.742;2023-04-25T13:14:01;6.00;;;4.50;;
4595;SDS011;2310;49.978;8.742;2023-04-25T13:18:03;11.10;;;6.57;;
4595;SDS011;2310;49.978;8.742;2023-04-25T13:22:07;8.07;;;6.17;;
4595;SDS011;2310;49.978;8.742;2023-04-25T13:26:08;9.13;;;6.97;;
4595;SDS011;2310;49.978;8.742;2023-04-25T13:30:09;6.57;;;4.97;;
4595;SDS011;2310;49.978;8.742;2023-04-25T13:34:12;9.40;;;5.23;;
4595;SDS011;2310;49.978;8.742;2023-04-25T13:38:13;9.23;;;4.67;;
4595;SDS011;2310;49.978;8.742;2023-04-25T13:42:14;6.87;;;4.77;;
4595;SDS011;2310;49.978;8.742;2023-04-25T13:46:16;37.70;;;33.33;;
4595;SDS011;2310;49.978;8.742;2023-04-25T13:50:19;9.60;;;4.67;;
4595;SDS011;2310;49.978;8.742;2023-04-25T13:54:21;7.87;;;4.90;;
4595;SDS011;2310;49.978;8.742;2023-04-25T13:58:22;7.13;;;5.80;;
4595;SDS011;2310;49.978;8.742;2023-04-25T14:02:23;8.93;;;4.90;;
4595;SDS011;2310;49.978;8.742;2023-04-25T14:06:24;6.47;;;4.53;;
4595;SDS011;2310;49.978;8.742;2023-04-25T14:10:26;7.17;;;4.47;;
4595;SDS011;2310;49.978;8.742;2023-04-25T14:14:27;9.47;;;5.80;;
4595;SDS011;2310;49.978;8.742;2023-04-25T14:18:29;7.03;;;5.30;;
4595;SDS011;2310;49.978;8.742;2023-04-25T14:22:30;8.47;;;5.00;;
4595;SDS011;2310;49.978;8.742;2023-04-25T14:26:32;7.00;;;4.90;;
4595;SDS011;2310;49.978;8.742;2023-04-25T14:30:36;7.40;;;5.20;;
4595;SDS011;2310;49.978;8.742;2023-04-25T14:34:37;7.60;;;4.47;;
4595;SDS011;2310;49.978;8.742;2023-04-25T14:38:38;10.27;;;4.80;;
4595;SDS011;2310;49.978;8.742;2023-04-25T14:42:39;7.80;;;4.57;;
4595;SDS011;2310;49.978;8.742;2023-04-25T14:46:41;8.03;;;4.67;;
4595;SDS011;2310;49.978;8.742;2023-04-25T14:50:42;6.40;;;4.23;;
4595;SDS011;2310;49.978;8.742;2023-04-25T14:54:43;7.80;;;4.30;;
4595;SDS011;2310;49.978;8.742;2023-04-25T14:58:44;10.90;;;3.90;;
4595;SDS011;2310;49.978;8.742;2023-04-25T15:02:46;6.17;;;4.07;;
4595;SDS011;2310;49.978;8.742;2023-04-25T15:06:49;9.67;;;3.70;;
4595;SDS011;2310;49.978;8.742;2023-04-25T15:10:50;8.37;;;4.17;;
4595;SDS011;2310;49.978;8.742;2023-04-25T15:14:52;6.57;;;4.23;;
4595;SDS011;2310;49.978;8.742;2023-04-25T15:18:54;5.30;;;4.10;;
4595;SDS011;2310;49.978;8.742;2023-04-25T15:22:55;7.00;;;3.73;;
4595;SDS011;2310;49.978;8.742;2023-04-25T15:26:57;8.63;;;3.57;;
4595;SDS011;2310;49.978;8.742;2023-04-25T15:30:59;6.90;;;3.40;;
4595;SDS011;2310;49.978;8.742;2023-04-25T15:35:01;8.53;;;3.53;;
4595;SDS011;2310;49.978;8.742;2023-04-25T15:39:04;6.93;;;3.63;;
4595;SDS011;2310;49.978;8.742;2023-04-25T15:43:05;8.33;;;5.47;;
4595;SDS011;2310;49.978;8.742;2023-04-25T15:47:07;9.87;;;7.07;;
4595;SDS011;2310;49.978;8.742;2023-04-25T15:51:09;8.23;;;4.60;;
4595;SDS011;2310;49.978;8.742;2023-04-25T15:55:10;5.70;;;4.20;;
4595;SDS011;2310;49.978;8.742;2023-04-25T15:59:12;6.70;;;3.83;;
4595;SDS011;2310;49.978;8.742;2023-04-25T16:03:14;8.70;;;4.03;;
4595;SDS011;2310;49.978;8.742;2023-04-25T16:07:16;7.07;;;4.20;;
4595;SDS011;2310;49.978;8.742;2023-04-25T16:11:18;10.10;;;4.40;;
4595;SDS011;2310;49.978;8.742;2023-04-25T16:15:19;7.00;;;3.43;;
4595;SDS011;2310;49.978;8.742;2023-04-25T16:19:20;5.60;;;3.00;;
4595;SDS011;2310;49.978;8.742;2023-04-25T16:23:22;6.70;;;3.73;;
4595;SDS011;2310;49.978;8.742;2023-04-25T16:27:23;11.20;;;7.43;;
4595;SDS011;2310;49.978;8.742;2023-04-25T16:31:24;5.30;;;3.20;;
4595;SDS011;2310;49.978;8.742;2023-04-25T16:35:26;4.60;;;2.77;;
4595;SDS011;2310;49.978;8.742;2023-04-25T16:39:29;8.50;;;3.83;;
4595;SDS011;2310;49.978;8.742;2023-04-25T16:43:30;6.60;;;3.53;;
4595;SDS011;2310;49.978;8.742;2023-04-25T16:47:31;7.10;;;3.13;;
4595;SDS011;2310;49.978;8.742;2023-04-25T16:51:32;7.00;;;3.00;;
4595;SDS011;2310;49.978;8.742;2023-04-25T16:55:34;6.33;;;3.07;;
4595;SDS011;2310;49.978;8.742;2023-04-25T16:59:36;8.20;;;2.90;;
4595;SDS011;2310;49.978;8.742;2023-04-25T17:03:38;5.97;;;3.00;;
4595;SDS011;2310;49.978;8.742;2023-04-25T17:07:39;6.00;;;2.90;;
4595;SDS011;2310;49.978;8.742;2023-04-25T17:11:41;8.63;;;3.10;;
4595;SDS011;2310;49.978;8.742;2023-04-25T17:15:42;5.90;;;3.10;;
4595;SDS011;2310;49.978;8.742;2023-04-25T17:19:43;6.37;;;3.13;;
4595;SDS011;2310;49.978;8.742;2023-04-25T17:23:44;6.50;;;2.77;;
4595;SDS011;2310;49.978;8.742;2023-04-25T17:27:45;6.60;;;2.97;;
4595;SDS011;2310;49.978;8.742;2023-04-25T17:31:46;7.80;;;3.43;;
4595;SDS011;2310;49.978;8.742;2023-04-25T17:35:48;7.63;;;2.90;;
4595;SDS011;2310;49.978;8.742;2023-04-25T17:39:49;7.33;;;2.73;;
4595;SDS011;2310;49.978;8.742;2023-04-25T17:43:50;6.53;;;3.40;;
4595;SDS011;2310;49.978;8.742;2023-04-25T17:47:51;5.70;;;2.70;;
4595;SDS011;2310;49.978;8.742;2023-04-25T17:51:53;5.97;;;3.57;;
4595;SDS011;2310;49.978;8.742;2023-04-25T17:55:54;6.90;;;2.73;;
4595;SDS011;2310;49.978;8.742;2023-04-25T17:59:56;4.50;;;2.37;;
4595;SDS011;2310;49.978;8.742;2023-04-25T18:03:57;7.57;;;2.70;;
4595;SDS011;2310;49.978;8.742;2023-04-25T18:07:59;6.47;;;3.93;;
4595;SDS011;2310;49.978;8.742;2023-04-25T18:12:00;6.40;;;2.73;;
4595;SDS011;2310;49.978;8.742;2023-04-25T18:16:03;7.60;;;3.80;;
4595;SDS011;2310;49.978;8.742;2023-04-25T18:20:06;6.60;;;2.90;;
4595;SDS011;2310;49.978;8.742;2023-04-25T18:24:11;8.43;;;2.90;;
4595;SDS011;2310;49.978;8.742;2023-04-25T18:28:13;8.10;;;3.40;;
4595;SDS011;2310;49.978;8.742;2023-04-25T18:32:14;6.47;;;2.33;;
4595;SDS011;2310;49.978;8.742;2023-04-25T18:36:16;5.60;;;2.20;;
4595;SDS011;2310;49.978;8.742;2023-04-25T18:40:17;4.80;;;2.57;;
4595;SDS011;2310;49.978;8.742;2023-04-25T18:44:18;7.00;;;3.17;;
4595;SDS011;2310;49.978;8.742;2023-04-25T18:48:19;6.30;;;2.50;;
4595;SDS011;2310;49.978;8.742;2023-04-25T18:52:21;7.70;;;3.10;;
4595;SDS011;2310;49.978;8.742;2023-04-25T18:56:23;9.53;;;2.90;;
4595;SDS011;2310;49.978;8.742;2023-04-25T19:00:25;6.37;;;3.63;;
4595;SDS011;2310;49.978;8.742;2023-04-25T19:04:29;6.50;;;2.87;;
4595;SDS011;2310;49.978;8.742;2023-04-25T19:08:31;6.43;;;3.07;;
4595;SDS011;2310;49.978;8.742;2023-04-25T19:12:32;5.83;;;2.67;;
4595;SDS011;2310;49.978;8.742;2023-04-25T19:16:33;6.27;;;3.10;;
4595;SDS011;2310;49.978;8.742;2023-04-25T19:20:37;6.27;;;2.77;;
4595;SDS011;2310;49.978;8.742;2023-04-25T19:24:39;6.70;;;2.97;;
4595;SDS011;2310;49.978;8.742;2023-04-25T19:28:41;5.87;;;3.00;;
4595;SDS011;2310;49.978;8.742;2023-04-25T19:32:44;7.30;;;3.40;;
4595;SDS011;2310;49.978;8.742;2023-04-25T19:36:45;5.13;;;2.50;;
4595;SDS011;2310;49.978;8.742;2023-04-25T19:40:48;5.20;;;3.20;;
4595;SDS011;2310;49.978;8.742;2023-04-25T19:44:49;10.17;;;3.07;;
4595;SDS011;2310;49.978;8.742;2023-04-25T19:48:52;8.07;;;2.97;;
4595;SDS011;2310;49.978;8.742;2023-04-25T19:52:53;6.70;;;3.20;;
4595;SDS011;2310;49.978;8.742;2023-04-25T19:56:55;4.67;;;2.90;;
4595;SDS011;2310;49.978;8.742;2023-04-25T20:00:56;5.17;;;3.00;;
4595;SDS011;2310;49.978;8.742;2023-04-25T20:04:58;6.17;;;2.80;;
4595;SDS011;2310;49.978;8.742;2023-04-25T20:08:59;5.30;;;3.13;;
4595;SDS011;2310;49.978;8.742;2023-04-25T20:13:01;4.53;;;2.80;;
4595;SDS011;2310;49.978;8.742;2023-04-25T20:17:02;7.97;;;4.03;;
4595;SDS011;2310;49.978;8.742;2023-04-25T20:21:04;6.70;;;3.00;;
4595;SDS011;2310;49.978;8.742;2023-04-25T20:25:08;7.40;;;2.80;;
4595;SDS011;2310;49.978;8.742;2023-04-25T20:29:10;6.17;;;2.70;;
4595;SDS011;2310;49.978;8.742;2023-04-25T20:33:11;5.40;;;2.60;;
4595;SDS011;2310;49.978;8.742;2023-04-25T20:37:12;8.17;;;3.30;;
4595;SDS011;2310;49.978;8.742;2023-04-25T20:41:15;10.67;;;3.60;;
4595;SDS011;2310;49.978;8.742;2023-04-25T20:45:17;4.70;;;2.50;;
4595;SDS011;2310;49.978;8.742;2023-04-25T20:49:19;6.63;;;3.00;;
4595;SDS011;2310;49.978;8.742;2023-04-25T20:53:20;4.83;;;2.90;;
4595;SDS011;2310;49.978;8.742;2023-04-25T20:57:21;6.87;;;3.03;;
4595;SDS011;2310;49.978;8.742;2023-04-25T21:01:23;5.33;;;3.00;;
4595;SDS011;2310;49.978;8.742;2023-04-25T21:05:24;5.60;;;3.27;;
4595;SDS011;2310;49.978;8.742;2023-04-25T21:09:25;5.73;;;3.07;;
4595;SDS011;2310;49.978;8.742;2023-04-25T21:13:27;5.80;;;3.30;;
4595;SDS011;2310;49.978;8.742;2023-04-25T21:17:28;4.63;;;2.83;;
4595;SDS011;2310;49.978;8.742;2023-04-25T21:21:30;5.83;;;2.63;;
4595;SDS011;2310;49.978;8.742;2023-04-25T21:25:32;5.67;;;3.40;;
4595;SDS011;2310;49.978;8.742;2023-04-25T21:29:33;4.20;;;2.73;;
4595;SDS011;2310;49.978;8.742;2023-04-25T21:33:34;7.90;;;2.77;;
4595;SDS011;2310;49.978;8.742;2023-04-25T21:37:36;5.43;;;3.33;;
4595;SDS011;2310;49.978;8.742;2023-04-25T21:41:37;6.00;;;3.50;;
4595;SDS011;2310;49.978;8.742;2023-04-25T21:45:39;5.23;;;2.60;;
4595;SDS011;2310;49.978;8.742;2023-04-25T21:49:43;4.73;;;2.87;;
4595;SDS011;2310;49.978;8.742;2023-04-25T21:53:44;7.37;;;3.47;;
4595;SDS011;2310;49.978;8.742;2023-04-25T21:57:45;5.70;;;2.83;;
4595;SDS011;2310;49.978;8.742;2023-04-25T22:01:46;6.00;;;2.70;;
4595;SDS011;2310;49.978;8.742;2023-04-25T22:05:50;4.87;;;3.27;;
4595;SDS011;2310;49.978;8.742;2023-04-25T22:09:51;9.53;;;2.90;;
4595;SDS011;2310;49.978;8.742;2023-04-25T22:13:54;5.97;;;2.40;;
4595;SDS011;2310;49.978;8.742;2023-04-25T22:17:56;4.90;;;2.67;;
4595;SDS011;2310;49.978;8.742;2023-04-25T22:21:58;5.20;;;3.07;;
4595;SDS011;2310;49.978;8.742;2023-04-25T22:25:59;5.70;;;2.47;;
4595;SDS011;2310;49.978;8.742;2023-04-25T22:30:00;6.60;;;4.10;;
4595;SDS011;2310;49.978;8.742;2023-04-25T22:34:01;4.60;;;2.83;;
4595;SDS011;2310;49.978;8.742;2023-04-25T22:38:03;7.50;;;3.10;;
4595;SDS011;2310;49.978;8.742;2023-04-25T22:42:04;5.27;;;2.70;;
4595;SDS011;2310;49.978;8.742;2023-04-25T22:46:18;8.17;;;3.23;;
4595;SDS011;2310;49.978;8.742;2023-04-25T22:50:22;5.87;;;3.10;;
4595;SDS011;2310;49.978;8.742;2023-04-25T22:54:24;4.23;;;2.67;;
4595;SDS011;2310;49.978;8.742;2023-04-25T22:58:25;4.40;;;2.53;;
4595;SDS011;2310;49.978;8.742;2023-04-25T23:02:26;4.33;;;2.80;;
4595;SDS011;2310;49.978;8.742;2023-04-25T23:06:28;10.87;;;3.30;;
4595;SDS011;2310;49.978;8.742;2023-04-25T23:10:29;8.17;;;3.80;;
4595;SDS011;2310;49.978;8.742;2023-04-25T23:14:30;7.70;;;3.80;;
4595;SDS011;2310;49.978;8.742;2023-04-25T23:18:33;3.77;;;2.20;;
4595;SDS011;2310;49.978;8.742;2023-04-25T23:22:35;5.60;;;3.40;;
4595;SDS011;2310;49.978;8.742;2023-04-25T23:26:38;4.87;;;2.77;;
4595;SDS011;2310;49.978;8.742;2023-04-25T23:30:41;5.03;;;3.10;;
4595;SDS011;2310;49.978;8.742;2023-04-25T23:34:42;7.30;;;3.53;;
4595;SDS011;2310;49.978;8.742;2023-04-25T23:38:43;4.97;;;2.50;;
4595;SDS011;2310;49.978;8.742;2023-04-25T23:42:45;6.80;;;2.73;;
4595;SDS011;2310;49.978;8.742;2023-04-25T23:46:47;6.10;;;3.43;;
4595;SDS011;2310;49.978;8.742;2023-04-25T23:50:49;6.00;;;3.43;;
4595;SDS011;2310;49.978;8.742;2023-04-25T23:54:50;5.20;;;3.40;;
4595;SDS011;2310;49.978;8.742;2023-04-25T23:58:52;5.00;;;2.60;;
